createdAt,value
2018-02-20T00:01:22.870Z,97.80
2018-02-20T00:03:50.307Z,97.80
2018-02-20T00:06:17.753Z,98.10
2018-02-20T00:08:45.172Z,97.60
2018-02-20T00:11:12.624Z,98.00
2018-02-20T00:13:40.036Z,98.30
2018-02-20T00:16:08.235Z,98.20
2018-02-20T00:18:35.667Z,98.20
2018-02-20T00:21:03.113Z,98.60
2018-02-20T00:23:30.541Z,98.90
2018-02-20T00:25:57.980Z,99.30
2018-02-20T00:28:25.404Z,99.40
2018-02-20T00:30:53.633Z,99.10
2018-02-20T00:33:21.061Z,99.10
2018-02-20T00:35:48.492Z,98.90
2018-02-20T00:38:15.918Z,99.00
2018-02-20T00:40:43.359Z,99.20
2018-02-20T00:43:10.768Z,99.30
2018-02-20T00:45:38.982Z,99.10
2018-02-20T00:48:06.399Z,99.10
2018-02-20T00:50:33.827Z,99.20
2018-02-20T00:53:01.260Z,99.40
2018-02-20T00:55:28.687Z,99.50
2018-02-20T00:57:56.897Z,99.40
2018-02-20T01:00:24.340Z,99.40
2018-02-20T01:02:51.771Z,99.70
2018-02-20T01:05:19.195Z,99.40
2018-02-20T01:07:46.667Z,99.60
2018-02-20T01:10:14.095Z,99.80
2018-02-20T01:12:41.547Z,99.90
2018-02-20T01:15:08.968Z,99.90
2018-02-20T01:17:36.428Z,99.90
2018-02-20T01:20:03.865Z,99.90
2018-02-20T01:22:31.298Z,99.90
2018-02-20T01:24:58.724Z,99.70
2018-02-20T01:27:26.157Z,99.70
2018-02-20T01:29:54.364Z,99.30
2018-02-20T01:32:21.796Z,99.20
2018-02-20T01:34:49.220Z,99.50
2018-02-20T01:37:16.666Z,99.60
2018-02-20T01:39:44.092Z,99.90
2018-02-20T01:42:11.579Z,99.90
2018-02-20T01:44:39.008Z,99.90
2018-02-20T01:47:06.445Z,99.90
2018-02-20T01:49:33.875Z,99.40
2018-02-20T01:52:01.300Z,99.60
2018-02-20T01:54:28.740Z,99.50
2018-02-20T01:56:56.168Z,99.00
2018-02-20T01:59:24.359Z,99.90
2018-02-20T02:01:51.809Z,99.90
2018-02-20T02:04:19.236Z,99.90
2018-02-20T02:06:46.671Z,99.90
2018-02-20T02:09:14.107Z,99.90
2018-02-20T02:11:42.288Z,99.90
2018-02-20T02:14:09.725Z,99.90
2018-02-20T02:16:37.152Z,99.90
2018-02-20T02:19:04.591Z,99.90
2018-02-20T02:21:32.020Z,99.90
2018-02-20T02:24:00.228Z,99.90
2018-02-20T02:26:27.672Z,99.90
2018-02-20T02:28:55.096Z,99.90
2018-02-20T02:31:22.528Z,99.90
2018-02-20T02:33:49.973Z,99.90
2018-02-20T02:36:17.436Z,99.90
2018-02-20T02:38:44.856Z,99.90
2018-02-20T02:41:12.293Z,99.90
2018-02-20T02:43:39.724Z,99.90
2018-02-20T02:46:07.917Z,99.90
2018-02-20T02:48:35.353Z,99.90
2018-02-20T02:51:02.788Z,99.90
2018-02-20T02:53:30.216Z,99.90
2018-02-20T02:55:57.648Z,99.90
2018-02-20T02:58:25.089Z,99.90
2018-02-20T03:00:52.516Z,99.90
2018-02-20T03:03:20.720Z,99.90
2018-02-20T03:05:48.160Z,99.90
2018-02-20T03:08:15.588Z,99.90
2018-02-20T03:10:43.020Z,99.90
2018-02-20T03:13:10.459Z,99.90
2018-02-20T03:15:37.916Z,99.80
2018-02-20T03:18:05.359Z,99.90
2018-02-20T03:20:32.784Z,99.90
2018-02-20T03:23:00.225Z,99.70
2018-02-20T03:25:27.664Z,99.50
2018-02-20T03:27:55.111Z,98.90
2018-02-20T03:30:22.547Z,99.00
2018-02-20T03:32:49.980Z,98.90
2018-02-20T03:35:18.164Z,99.30
2018-02-20T03:37:45.604Z,99.30
2018-02-20T03:40:13.033Z,99.50
2018-02-20T03:42:40.464Z,99.70
2018-02-20T03:45:07.904Z,99.60
2018-02-20T03:47:36.095Z,99.60
2018-02-20T03:50:03.527Z,99.60
2018-02-20T03:52:30.964Z,99.70
2018-02-20T03:54:58.427Z,99.40
2018-02-20T03:57:25.843Z,99.60
2018-02-20T03:59:53.276Z,99.30
2018-02-20T04:02:20.696Z,99.10
2018-02-20T04:04:48.896Z,99.30
2018-02-20T04:07:16.356Z,99.20
2018-02-20T04:09:43.832Z,99.30
2018-02-20T04:12:11.270Z,99.20
2018-02-20T04:14:38.700Z,99.30
2018-02-20T04:17:06.135Z,99.50
2018-02-20T04:19:33.564Z,99.30
2018-02-20T04:22:01.024Z,99.20
2018-02-20T04:24:28.474Z,99.10
2018-02-20T04:26:55.916Z,99.20
2018-02-20T04:29:23.345Z,99.40
2018-02-20T04:31:50.773Z,99.50
2018-02-20T04:34:18.218Z,99.00
2018-02-20T04:36:45.649Z,99.40
2018-02-20T04:39:13.084Z,99.20
2018-02-20T04:41:40.650Z,98.80
2018-02-20T04:44:08.087Z,98.50
2018-02-20T04:46:35.521Z,98.00
2018-02-20T04:49:02.952Z,97.60
2018-02-20T04:51:30.384Z,97.70
2018-02-20T04:53:57.807Z,97.90
2018-02-20T04:56:25.236Z,97.80
2018-02-20T04:58:53.433Z,97.30
2018-02-20T05:01:20.852Z,97.30
2018-02-20T05:03:48.293Z,97.40
2018-02-20T05:06:15.722Z,97.20
2018-02-20T05:08:43.920Z,97.40
2018-02-20T05:11:11.352Z,97.40
2018-02-20T05:13:38.799Z,97.30
2018-02-20T05:16:06.235Z,97.10
2018-02-20T05:18:33.665Z,97.20
2018-02-20T05:21:01.100Z,96.90
2018-02-20T05:23:28.543Z,96.50
2018-02-20T05:25:55.987Z,97.00
2018-02-20T05:28:23.424Z,96.70
2018-02-20T05:30:50.851Z,96.40
2018-02-20T05:33:19.048Z,96.70
2018-02-20T05:35:46.472Z,96.70
2018-02-20T05:38:13.895Z,96.20
2018-02-20T05:40:42.097Z,96.80
2018-02-20T05:43:09.528Z,96.80
2018-02-20T05:45:36.956Z,96.40
2018-02-20T05:48:05.955Z,96.00
2018-02-20T05:50:33.380Z,95.90
2018-02-20T05:53:00.812Z,96.30
2018-02-20T05:55:28.239Z,95.90
2018-02-20T05:57:56.457Z,97.20
2018-02-20T06:00:23.892Z,97.20
2018-02-20T06:02:51.315Z,98.20
2018-02-20T06:05:18.755Z,96.80
2018-02-20T06:07:46.196Z,95.60
2018-02-20T06:10:13.616Z,95.10
2018-02-20T06:12:41.055Z,95.10
2018-02-20T06:15:09.252Z,95.50
2018-02-20T06:17:36.697Z,95.50
2018-02-20T06:20:04.131Z,94.60
2018-02-20T06:22:31.552Z,94.40
2018-02-20T06:24:58.977Z,96.90
2018-02-20T06:27:27.163Z,92.30
2018-02-20T06:29:54.600Z,92.20
2018-02-20T06:32:22.020Z,93.20
2018-02-20T06:34:50.217Z,94.20
2018-02-20T06:37:17.648Z,94.20
2018-02-20T06:39:45.079Z,93.60
2018-02-20T06:42:12.510Z,94.20
2018-02-20T06:44:40.739Z,94.30
2018-02-20T06:47:08.157Z,94.30
2018-02-20T06:49:35.576Z,94.70
2018-02-20T06:52:03.003Z,94.60
2018-02-20T06:54:30.431Z,94.10
2018-02-20T06:56:57.873Z,93.70
2018-02-20T06:59:26.081Z,92.50
2018-02-20T07:01:53.503Z,92.50
2018-02-20T07:04:20.932Z,92.60
2018-02-20T07:06:48.359Z,92.70
2018-02-20T07:09:15.795Z,92.60
2018-02-20T07:11:43.976Z,93.40
2018-02-20T07:14:11.402Z,93.40
2018-02-20T07:16:38.832Z,92.50
2018-02-20T07:19:07.033Z,94.60
2018-02-20T07:21:34.488Z,94.70
2018-02-20T07:24:01.917Z,92.30
2018-02-20T07:26:29.340Z,91.70
2018-02-20T07:28:56.771Z,91.60
2018-02-20T07:31:24.968Z,93.30
2018-02-20T07:33:52.387Z,93.30
2018-02-20T07:36:19.836Z,94.10
2018-02-20T07:38:47.253Z,94.50
2018-02-20T07:41:14.690Z,94.80
2018-02-20T07:43:42.880Z,95.40
2018-02-20T07:46:10.312Z,95.40
2018-02-20T07:48:37.747Z,95.30
2018-02-20T07:51:05.160Z,95.80
2018-02-20T07:53:33.362Z,95.60
2018-02-20T07:56:00.796Z,95.60
2018-02-20T07:58:28.216Z,95.60
2018-02-20T08:00:55.648Z,94.60
2018-02-20T08:03:23.851Z,95.30
2018-02-20T08:05:51.260Z,95.20
2018-02-20T08:08:18.688Z,95.40
2018-02-20T08:10:46.888Z,95.60
2018-02-20T08:13:14.314Z,95.50
2018-02-20T08:15:41.738Z,95.40
2018-02-20T08:18:09.927Z,95.50
2018-02-20T08:20:37.356Z,95.50
2018-02-20T08:23:04.792Z,95.70
2018-02-20T08:25:32.216Z,95.70
2018-02-20T08:28:00.408Z,95.20
2018-02-20T08:30:27.845Z,95.10
2018-02-20T08:32:55.269Z,95.40
2018-02-20T08:35:22.688Z,95.10
2018-02-20T08:37:50.885Z,95.30
2018-02-20T08:40:18.304Z,95.30
2018-02-20T08:42:45.731Z,95.50
2018-02-20T08:45:13.944Z,95.10
2018-02-20T08:47:41.372Z,95.10
2018-02-20T08:50:08.792Z,95.20
2018-02-20T08:52:36.214Z,95.50
2018-02-20T08:55:04.400Z,95.30
2018-02-20T08:57:31.829Z,95.30
2018-02-20T08:59:59.252Z,95.10
2018-02-20T09:02:27.445Z,93.80
2018-02-20T09:04:54.884Z,93.80
2018-02-20T09:07:22.304Z,93.90
2018-02-20T09:09:50.496Z,94.20
2018-02-20T09:12:17.925Z,94.20
2018-02-20T09:14:45.349Z,94.40
2018-02-20T09:17:13.552Z,92.90
2018-02-20T09:19:40.972Z,92.90
2018-02-20T09:22:08.412Z,92.60
2018-02-20T09:24:35.833Z,91.70
2018-02-20T09:27:04.033Z,92.00
2018-02-20T09:29:31.460Z,92.00
2018-02-20T09:31:58.886Z,92.50
2018-02-20T09:34:26.312Z,91.80
2018-02-20T09:36:54.508Z,90.60
2018-02-20T09:39:21.927Z,90.50
2018-02-20T09:41:49.352Z,89.90
2018-02-20T09:44:17.544Z,90.40
2018-02-20T09:46:44.969Z,90.30
2018-02-20T09:49:12.397Z,90.50
2018-02-20T09:51:40.580Z,88.00
2018-02-20T09:54:08.000Z,87.90
2018-02-20T09:56:36.197Z,86.60
2018-02-20T09:59:03.621Z,86.50
2018-02-20T10:01:31.040Z,85.40
2018-02-20T10:03:59.228Z,84.70
2018-02-20T10:06:26.652Z,84.60
2018-02-20T10:08:54.076Z,84.10
2018-02-20T10:11:22.274Z,82.60
2018-02-20T10:13:49.704Z,82.60
2018-02-20T10:16:17.131Z,82.80
2018-02-20T10:18:44.556Z,82.80
2018-02-20T10:21:11.995Z,85.70
2018-02-20T10:23:39.424Z,87.50
2018-02-20T10:26:06.859Z,88.50
2018-02-20T10:28:34.276Z,86.80
2018-02-20T10:31:01.701Z,86.10
2018-02-20T10:33:29.164Z,87.10
2018-02-20T10:35:56.590Z,84.70
2018-02-20T10:38:24.004Z,83.10
2018-02-20T10:40:51.432Z,83.20
2018-02-20T10:43:19.648Z,82.60
2018-02-20T10:45:47.073Z,82.60
2018-02-20T10:48:14.500Z,83.30
2018-02-20T10:50:41.929Z,82.60
2018-02-20T10:53:10.122Z,82.40
2018-02-20T10:55:37.551Z,82.20
2018-02-20T10:58:04.966Z,80.50
2018-02-20T11:00:33.157Z,83.60
2018-02-20T11:03:00.584Z,83.60
2018-02-20T11:05:28.004Z,79.80
2018-02-20T11:07:56.193Z,81.00
2018-02-20T11:10:23.624Z,81.00
2018-02-20T11:12:51.048Z,78.90
2018-02-20T11:15:18.476Z,79.20
2018-02-20T11:17:46.680Z,80.90
2018-02-20T11:20:14.088Z,80.70
2018-02-20T11:22:41.576Z,83.40
2018-02-20T11:25:08.997Z,83.10
2018-02-20T11:27:36.431Z,83.10
2018-02-20T11:30:03.867Z,82.10
2018-02-20T11:32:31.292Z,79.40
2018-02-20T11:34:59.481Z,80.40
2018-02-20T11:37:26.916Z,80.30
2018-02-20T11:39:54.340Z,81.80
2018-02-20T11:42:21.780Z,83.10
2018-02-20T11:44:49.216Z,83.10
2018-02-20T11:47:17.408Z,83.60
2018-02-20T11:49:44.873Z,83.40
2018-02-20T11:52:12.312Z,84.40
2018-02-20T11:54:39.860Z,85.00
2018-02-20T11:57:07.264Z,85.30
2018-02-20T11:59:34.699Z,83.50
2018-02-20T12:02:02.116Z,83.60
2018-02-20T12:04:30.316Z,84.80
2018-02-20T12:06:57.746Z,84.70
2018-02-20T12:09:25.176Z,84.00
2018-02-20T12:11:53.356Z,86.20
2018-02-20T12:14:20.804Z,86.10
2018-02-20T12:16:48.224Z,87.30
2018-02-20T12:19:15.697Z,88.30
2018-02-20T12:21:43.096Z,87.40
2018-02-20T12:24:11.296Z,89.40
2018-02-20T12:26:38.727Z,89.30
2018-02-20T12:29:06.160Z,87.60
2018-02-20T12:31:33.585Z,89.10
2018-02-20T12:34:01.032Z,88.80
2018-02-20T12:36:28.464Z,90.20
2018-02-20T12:38:56.664Z,90.10
2018-02-20T12:41:24.088Z,90.10
2018-02-20T12:43:51.516Z,90.00
2018-02-20T12:46:18.950Z,90.80
2018-02-20T12:48:47.140Z,90.50
2018-02-20T12:51:14.565Z,90.50
2018-02-20T12:53:42.772Z,91.30
2018-02-20T12:56:10.180Z,91.00
2018-02-20T12:58:37.612Z,91.30
2018-02-20T13:01:05.037Z,91.30
2018-02-20T13:03:32.529Z,91.40
2018-02-20T13:05:59.968Z,91.00
2018-02-20T13:08:27.407Z,91.20
2018-02-20T13:10:54.827Z,90.60
2018-02-20T13:13:22.256Z,90.60
2018-02-20T13:15:49.682Z,90.00
2018-02-20T13:18:17.868Z,90.50
2018-02-20T13:20:45.340Z,90.50
2018-02-20T13:23:12.774Z,90.40
2018-02-20T13:25:40.188Z,90.00
2018-02-20T13:28:07.607Z,90.40
2018-02-20T13:30:35.044Z,91.10
2018-02-20T13:33:03.232Z,90.20
2018-02-20T13:35:30.663Z,90.20
2018-02-20T13:37:58.095Z,90.10
2018-02-20T13:40:25.519Z,90.10
2018-02-20T13:42:53.708Z,89.90
2018-02-20T13:45:21.141Z,89.80
2018-02-20T13:47:48.715Z,87.90
2018-02-20T13:50:16.155Z,87.30
2018-02-20T13:52:43.583Z,88.70
2018-02-20T13:55:11.016Z,89.30
2018-02-20T13:57:38.436Z,89.20
2018-02-20T14:00:06.629Z,89.70
2018-02-20T14:02:34.061Z,89.60
2018-02-20T14:05:01.492Z,89.70
2018-02-20T14:07:28.928Z,89.90
2018-02-20T14:09:57.120Z,90.00
2018-02-20T14:12:24.523Z,90.00
2018-02-20T14:14:52.728Z,85.60
2018-02-20T14:17:20.148Z,85.40
2018-02-20T14:19:47.581Z,83.30
2018-02-20T14:22:15.010Z,83.90
2018-02-20T14:24:42.431Z,83.70
2018-02-20T14:27:10.624Z,83.00
2018-02-20T14:29:38.060Z,83.00
2018-02-20T14:32:05.472Z,83.80
2018-02-20T14:34:33.664Z,83.30
2018-02-20T14:37:01.093Z,83.00
2018-02-20T14:39:29.279Z,75.40
2018-02-20T14:41:56.821Z,75.30
2018-02-20T14:44:24.252Z,64.40
2018-02-20T14:46:51.731Z,66.90
2018-02-20T14:49:19.157Z,66.90
2018-02-20T14:51:46.601Z,67.30
2018-02-20T14:54:14.036Z,70.50
2018-02-20T14:56:41.464Z,70.90
2018-02-20T14:59:08.900Z,73.30
2018-02-20T15:01:36.328Z,72.80
2018-02-20T15:04:03.748Z,74.30
2018-02-20T15:06:31.172Z,74.30
2018-02-20T15:08:58.592Z,74.80
2018-02-20T15:11:26.032Z,73.90
2018-02-20T15:13:53.460Z,73.80
2018-02-20T15:16:20.891Z,74.50
2018-02-20T15:18:48.316Z,75.00
2018-02-20T15:21:15.740Z,75.30
2018-02-20T15:23:43.927Z,74.80
2018-02-20T15:26:11.351Z,74.80
2018-02-20T15:28:39.548Z,75.20
2018-02-20T15:31:06.976Z,75.20
2018-02-20T15:33:34.395Z,77.10
2018-02-20T15:36:02.608Z,76.50
2018-02-20T15:38:30.038Z,76.50
2018-02-20T15:40:57.464Z,77.30
2018-02-20T15:43:24.896Z,79.00
2018-02-20T15:45:52.323Z,78.10
2018-02-20T15:48:19.752Z,78.40
2018-02-20T15:50:47.960Z,77.70
2018-02-20T15:53:15.371Z,77.70
2018-02-20T15:55:42.796Z,78.90
2018-02-20T15:58:10.996Z,78.50
2018-02-20T16:00:38.415Z,78.50
2018-02-20T16:03:05.840Z,79.20
2018-02-20T16:05:34.044Z,79.50
2018-02-20T16:08:01.469Z,79.40
2018-02-20T16:10:28.900Z,79.70
2018-02-20T16:12:56.324Z,81.10
2018-02-20T16:15:24.520Z,80.30
2018-02-20T16:17:51.939Z,80.20
2018-02-20T16:20:19.381Z,81.40
2018-02-20T16:22:46.804Z,82.00
2018-02-20T16:25:14.992Z,82.50
2018-02-20T16:27:42.424Z,82.40
2018-02-20T16:30:09.861Z,82.40
2018-02-20T16:32:37.280Z,81.20
2018-02-20T16:35:05.468Z,79.80
2018-02-20T16:37:32.890Z,79.60
2018-02-20T16:40:01.080Z,79.60
2018-02-20T16:42:28.508Z,79.60
2018-02-20T16:44:55.988Z,79.10
2018-02-20T16:47:23.450Z,79.90
2018-02-20T16:49:50.844Z,79.60
2018-02-20T16:52:18.268Z,80.60
2018-02-20T16:54:45.704Z,80.90
2018-02-20T16:57:13.919Z,82.10
2018-02-20T16:59:41.376Z,82.10
2018-02-20T17:02:08.772Z,82.10
2018-02-20T17:04:36.204Z,81.90
2018-02-20T17:07:03.692Z,83.80
2018-02-20T17:09:31.117Z,83.50
2018-02-20T17:11:58.549Z,84.30
2018-02-20T17:14:25.976Z,85.30
2018-02-20T17:16:53.415Z,85.20
2018-02-20T17:19:20.833Z,85.90
2018-02-20T17:21:48.260Z,86.80
2018-02-20T17:24:16.456Z,85.90
2018-02-20T17:26:43.885Z,85.90
2018-02-20T17:29:11.304Z,87.10
2018-02-20T17:31:38.736Z,88.10
2018-02-20T17:34:06.165Z,85.80
2018-02-20T17:36:33.596Z,86.20
2018-02-20T17:39:01.034Z,85.40
2018-02-20T17:41:28.468Z,84.50
2018-02-20T17:43:55.909Z,85.20
2018-02-20T17:46:23.336Z,86.50
2018-02-20T17:48:50.764Z,87.10
2018-02-20T17:51:18.196Z,86.00
2018-02-20T17:53:45.630Z,85.40
2018-02-20T17:56:13.823Z,84.10
2018-02-20T17:58:41.260Z,84.00
2018-02-20T18:01:08.688Z,84.60
2018-02-20T18:03:36.121Z,85.40
2018-02-20T18:06:03.564Z,84.70
2018-02-20T18:08:30.983Z,85.10
2018-02-20T18:10:59.185Z,85.30
2018-02-20T18:13:26.648Z,85.20
2018-02-20T18:15:54.084Z,86.50
2018-02-20T18:18:21.505Z,85.90
2018-02-20T18:20:48.932Z,86.40
2018-02-20T18:23:16.365Z,86.90
2018-02-20T18:25:44.568Z,87.00
2018-02-20T18:28:12.036Z,86.90
2018-02-20T18:30:39.456Z,86.20
2018-02-20T18:33:06.901Z,87.30
2018-02-20T18:35:34.329Z,87.20
2018-02-20T18:38:01.780Z,87.90
2018-02-20T18:40:29.216Z,88.20
2018-02-20T18:42:56.648Z,88.40
2018-02-20T18:45:24.092Z,88.80
2018-02-20T18:47:51.528Z,88.40
2018-02-20T18:50:18.977Z,88.90
2018-02-20T18:52:46.412Z,89.40
2018-02-20T18:55:13.840Z,90.00
2018-02-20T18:57:41.278Z,89.80
2018-02-20T19:00:08.712Z,89.70
2018-02-20T19:02:36.160Z,90.30
2018-02-20T19:05:03.585Z,90.00
2018-02-20T19:07:31.772Z,90.10
2018-02-20T19:09:59.208Z,90.10
2018-02-20T19:12:26.656Z,90.30
2018-02-20T19:14:54.092Z,90.90
2018-02-20T19:17:21.532Z,90.80
2018-02-20T19:19:48.955Z,90.90
2018-02-20T19:22:17.154Z,91.20
2018-02-20T19:24:44.573Z,91.20
2018-02-20T19:27:12.012Z,91.00
2018-02-20T19:29:39.432Z,90.90
2018-02-20T19:32:07.624Z,90.90
2018-02-20T19:34:35.087Z,90.90
2018-02-20T19:37:02.484Z,91.30
2018-02-20T19:39:30.667Z,91.00
2018-02-20T19:41:58.104Z,91.00
2018-02-20T19:44:25.553Z,90.70
2018-02-20T19:46:53.888Z,90.60
2018-02-20T19:49:21.348Z,90.60
2018-02-20T19:51:48.781Z,91.20
2018-02-20T19:54:16.220Z,91.50
2018-02-20T19:56:43.653Z,91.60
2018-02-20T19:59:11.849Z,91.30
2018-02-20T20:01:39.293Z,91.30
2018-02-20T20:04:06.745Z,91.70
2018-02-20T20:06:34.152Z,90.40
2018-02-20T20:09:01.601Z,91.20
2018-02-20T20:11:29.024Z,91.20
2018-02-20T20:13:56.454Z,91.20
2018-02-20T20:16:24.648Z,91.10
2018-02-20T20:18:52.080Z,91.00
2018-02-20T20:21:19.512Z,91.10
2018-02-20T20:23:46.950Z,91.30
2018-02-20T20:26:14.385Z,91.50
2018-02-20T20:28:42.592Z,92.30
2018-02-20T20:31:10.025Z,92.20
2018-02-20T20:33:37.457Z,92.30
2018-02-20T20:36:04.884Z,92.10
2018-02-20T20:38:32.316Z,92.30
2018-02-20T20:40:59.767Z,92.50
2018-02-20T20:43:27.192Z,92.40
2018-02-20T20:45:55.383Z,92.70
2018-02-20T20:48:22.834Z,92.70
2018-02-20T20:50:50.268Z,92.60
2018-02-20T20:53:17.700Z,92.60
2018-02-20T20:55:45.124Z,92.60
2018-02-20T20:58:12.571Z,92.50
2018-02-20T21:00:40.033Z,92.50
2018-02-20T21:03:07.484Z,92.10
2018-02-20T21:05:34.900Z,92.10
2018-02-20T21:08:02.336Z,92.40
2018-02-20T21:10:29.776Z,92.50
2018-02-20T21:12:57.208Z,92.40
2018-02-20T21:15:25.395Z,92.90
2018-02-20T21:17:52.837Z,92.80
2018-02-20T21:20:20.268Z,93.00
2018-02-20T21:22:47.729Z,93.10
2018-02-20T21:25:15.168Z,93.50
2018-02-20T21:27:42.600Z,93.20
2018-02-20T21:30:10.044Z,93.40
2018-02-20T21:32:37.471Z,93.20
2018-02-20T21:35:04.929Z,93.40
2018-02-20T21:37:32.340Z,93.50
2018-02-20T21:40:00.554Z,93.30
2018-02-20T21:42:28.010Z,93.30
2018-02-20T21:44:55.467Z,93.40
2018-02-20T21:47:22.917Z,93.20
2018-02-20T21:49:51.109Z,93.70
2018-02-20T21:52:18.536Z,93.70
2018-02-20T21:54:45.974Z,93.10
2018-02-20T21:57:13.396Z,93.00
2018-02-20T21:59:41.596Z,93.10
2018-02-20T22:02:09.081Z,93.10
2018-02-20T22:04:38.030Z,93.50
2018-02-20T22:07:05.477Z,93.50
2018-02-20T22:09:32.909Z,93.80
2018-02-20T22:12:00.327Z,93.90
2018-02-20T22:14:27.809Z,93.90
2018-02-20T22:16:55.240Z,93.80
2018-02-20T22:19:22.695Z,93.80
2018-02-20T22:21:50.128Z,93.70
2018-02-20T22:24:17.588Z,93.80
2018-02-20T22:26:45.009Z,94.00
2018-02-20T22:29:12.449Z,93.80
2018-02-20T22:31:39.896Z,93.90
2018-02-20T22:34:07.335Z,94.00
2018-02-20T22:36:34.769Z,93.70
2018-02-20T22:39:02.204Z,94.00
2018-02-20T22:41:29.632Z,94.30
2018-02-20T22:43:57.084Z,94.00
2018-02-20T22:46:24.509Z,93.90
2018-02-20T22:48:51.956Z,94.00
2018-02-20T22:51:19.400Z,94.00
2018-02-20T22:53:46.851Z,94.00
2018-02-20T22:56:14.291Z,93.80
2018-02-20T22:58:41.760Z,94.10
2018-02-20T23:01:09.192Z,94.20
2018-02-20T23:03:36.628Z,94.00
2018-02-20T23:06:04.105Z,93.90
2018-02-20T23:08:31.528Z,94.00
2018-02-20T23:10:58.960Z,94.10
2018-02-20T23:13:26.389Z,94.10
2018-02-20T23:15:53.848Z,94.30
2018-02-20T23:18:21.268Z,94.60
2018-02-20T23:20:48.708Z,94.00
2018-02-20T23:23:16.132Z,94.20
2018-02-20T23:25:43.575Z,94.00
2018-02-20T23:28:11.004Z,94.40
2018-02-20T23:30:39.217Z,94.30
2018-02-20T23:33:06.637Z,94.30
2018-02-20T23:35:34.092Z,94.40
2018-02-20T23:38:01.560Z,94.40
2018-02-20T23:40:29.227Z,94.70
2018-02-20T23:42:57.436Z,95.00
2018-02-20T23:45:24.851Z,95.00
2018-02-20T23:47:52.283Z,94.90
2018-02-20T23:50:19.720Z,95.30
2018-02-20T23:52:47.924Z,95.10
2018-02-20T23:55:15.357Z,95.00
2018-02-20T23:57:42.788Z,94.60
